Time;durP1;ratioP1;P1;durP2;ratioP2;P2;SDS_P1;SDS_P2;PMS_P1;PMS_P2;Temp;Humidity;BMP_temperature;BMP_pressure;BME280_temperature;BME280_humidity;BME280_pressure;Samples;Min_cycle;Max_cycle;Signal;HPM_P1;HPM_P2
2023/04/02 00:03:52;;;;;;;3.47;1.42;;;;;;;;;;5088811;27;20368;-32
2023/04/02 00:06:32;;;;;;;1.80;1.38;;;;;;;;;;5069128;28;20053;-31
2023/04/02 00:09:01;;;;;;;2.03;1.33;;;18.80;75.10;;;;;;5075749;28;20485;-30
2023/04/02 00:11:28;;;;;;;1.88;1.40;;;;;;;;;;5089389;28;20072;-31
2023/04/02 00:13:55;;;;;;;1.75;1.40;;;18.40;66.10;;;;;;5089005;28;20051;-32
2023/04/02 00:16:23;;;;;;;1.90;1.40;;;;;;;;;;5089303;28;20055;-31
2023/04/02 00:18:51;;;;;;;2.30;1.65;;;;;;;;;;5088641;28;20052;-31
2023/04/02 00:21:20;;;;;;;2.45;1.60;;;;;;;;;;5089381;28;20052;-32
2023/04/02 00:23:48;;;;;;;2.38;1.60;;;18.50;48.90;;;;;;5088941;28;20056;-35
2023/04/02 00:26:21;;;;;;;2.33;1.40;;;;;;;;;;5088782;28;20050;-31
2023/04/02 00:28:48;;;;;;;1.40;1.20;;;18.90;75.50;;;;;;5089247;28;20052;-31
2023/04/02 00:31:15;;;;;;;2.67;1.55;;;19.50;49.50;;;;;;5089089;28;20048;-34
2023/04/02 00:33:42;;;;;;;1.67;1.40;;;17.40;75.20;;;;;;5075081;28;20127;-31
2023/04/02 00:36:10;;;;;;;2.25;1.50;;;;;;;;;;5071246;28;20048;-34
2023/04/02 00:38:37;;;;;;;1.80;1.42;;;18.60;75.70;;;;;;5088811;28;20550;-31
2023/04/02 00:41:05;;;;;;;1.90;1.35;;;;;;;;;;5088398;28;20123;-32
2023/04/02 00:43:33;;;;;;;2.92;1.70;;;;;;;;;;5087184;28;20505;-32
2023/04/02 00:46:02;;;;;;;2.08;1.40;;;18.50;75.80;;;;;;5088745;28;20052;-31
2023/04/02 00:48:39;;;;;;;1.70;1.38;;;18.40;48.80;;;;;;5088077;28;20071;-31
2023/04/02 00:51:10;;;;;;;2.20;1.52;;;18.40;48.90;;;;;;5088336;28;20138;-34
2023/04/02 00:53:37;;;;;;;2.50;1.52;;;;;;;;;;5088299;28;20045;-32
2023/04/02 00:56:06;;;;;;;2.67;1.42;;;;;;;;;;5088256;28;20494;-31
2023/04/02 00:58:34;;;;;;;3.25;1.33;;;;;;;;;;5088310;28;20387;-34
2023/04/02 01:01:01;;;;;;;2.17;1.85;;;19.50;76.30;;;;;;5086085;28;20098;-31
2023/04/02 01:03:33;;;;;;;2.13;1.40;;;18.20;48.70;;;;;;5067679;28;20127;-30
2023/04/02 01:06:01;;;;;;;2.58;1.40;;;19.30;49.40;;;;;;5067925;28;20586;-31
2023/04/02 01:08:34;;;;;;;2.85;1.40;;;18.30;48.80;;;;;;5070558;28;20048;-36
2023/04/02 01:11:02;;;;;;;2.53;1.60;;;;;;;;;;5088286;28;20048;-31
2023/04/02 01:13:33;;;;;;;2.10;1.40;;;18.30;48.90;;;;;;5082767;28;20123;-31
2023/04/02 01:16:01;;;;;;;1.48;1.30;;;;;;;;;;5073765;28;20047;-31
2023/04/02 01:18:32;;;;;;;2.38;1.40;;;;;;;;;;5074679;28;20048;-31
2023/04/02 01:21:22;;;;;;;1.98;1.50;;;18.30;48.80;;;;;;5072732;28;20057;-35
2023/04/02 01:23:53;;;;;;;2.25;1.50;;;;;;;;;;5074173;28;20051;-33
2023/04/02 01:26:23;;;;;;;2.58;1.50;;;;;;;;;;5074424;28;20131;-31
2023/04/02 01:29:01;;;;;;;1.98;1.30;;;;;;;;;;5074438;28;20060;-31
2023/04/02 01:31:28;;;;;;;2.38;1.33;;;;;;;;;;5057241;28;20065;-31
2023/04/02 01:33:55;;;;;;;1.23;1.13;;;;;;;;;;5054269;28;20047;-31
2023/04/02 01:36:25;;;;;;;2.20;1.45;;;18.20;48.70;;;;;;5058513;28;20047;-32
2023/04/02 01:38:53;;;;;;;2.13;1.60;;;;;;;;;;5074063;28;20044;-31
2023/04/02 01:41:21;;;;;;;2.70;1.70;;;;;;;;;;5073918;28;20048;-32
2023/04/02 01:43:49;;;;;;;1.70;1.40;;;19.00;54.80;;;;;;5074032;28;20050;-33
2023/04/02 01:46:27;;;;;;;2.45;1.50;;;;;;;;;;5073450;28;20121;-33
2023/04/02 01:48:54;;;;;;;2.20;1.50;;;18.40;66.80;;;;;;5074091;28;20091;-32
2023/04/02 01:51:26;;;;;;;2.35;1.50;;;;;;;;;;5073924;28;20563;-31
2023/04/02 01:53:53;;;;;;;1.80;1.50;;;17.60;75.30;;;;;;5073640;28;20405;-31
2023/04/02 01:56:20;;;;;;;3.03;1.40;;;;;;;;;;5073841;28;20582;-35
2023/04/02 01:58:48;;;;;;;1.83;1.35;;;19.20;76.80;;;;;;5067695;28;20111;-31
2023/04/02 02:01:15;;;;;;;1.80;1.30;;;18.90;76.30;;;;;;5053712;28;20406;-31
2023/04/02 02:03:44;;;;;;;2.35;1.60;;;17.50;65.00;;;;;;5053606;28;20143;-31
2023/04/02 02:06:19;;;;;;;1.90;1.70;;;17.70;76.20;;;;;;5053830;28;20049;-32
2023/04/02 02:08:47;;;;;;;2.38;1.48;;;18.30;52.60;;;;;;5058500;28;20064;-34
2023/04/02 02:11:15;;;;;;;3.03;1.45;;;17.70;49.10;;;;;;5073673;28;20055;-33
2023/04/02 02:13:46;;;;;;;1.60;1.30;;;17.90;49.20;;;;;;5072769;28;20469;-36
2023/04/02 02:16:16;;;;;;;1.85;1.40;;;18.00;76.40;;;;;;5073601;28;20049;-32
2023/04/02 02:18:45;;;;;;;2.22;1.45;;;18.30;64.30;;;;;;5073202;28;20421;-33
2023/04/02 02:21:12;;;;;;;1.88;1.30;;;17.70;76.40;;;;;;5073269;28;20152;-31
2023/04/02 02:23:39;;;;;;;2.08;1.40;;;17.60;76.20;;;;;;5073096;28;20504;-31
2023/04/02 02:26:06;;;;;;;2.63;1.40;;;18.20;76.60;;;;;;5072200;28;20425;-31
2023/04/02 02:28:33;;;;;;;2.58;1.48;;;17.70;49.10;;;;;;5057917;28;20048;-34
2023/04/02 02:31:01;;;;;;;2.30;1.40;;;17.80;49.20;;;;;;5053151;28;20041;-33
2023/04/02 02:33:28;;;;;;;1.92;1.38;;;18.20;76.70;;;;;;5052626;28;20049;-32
2023/04/02 02:35:57;;;;;;;2.08;1.50;;;17.20;68.00;;;;;;5053937;28;20048;-31
2023/04/02 02:38:34;;;;;;;2.28;1.50;;;17.90;76.60;;;;;;5072968;28;20135;-31
2023/04/02 02:41:03;;;;;;;2.53;1.48;;;17.70;49.30;;;;;;5072979;28;20131;-35
2023/04/02 02:43:30;;;;;;;2.38;1.55;;;;;;;;;;5072122;28;20044;-32
2023/04/02 02:45:58;;;;;;;2.35;1.50;;;;;;;;;;5072689;28;20483;-37
2023/04/02 02:48:30;;;;;;;2.25;1.40;;;17.60;76.20;;;;;;5072810;28;20098;-31
2023/04/02 02:50:58;;;;;;;2.50;1.70;;;18.60;76.80;;;;;;5073076;28;20052;-31
2023/04/02 02:53:25;;;;;;;1.75;1.20;;;17.60;76.70;;;;;;5072490;28;20047;-31
2023/04/02 02:55:53;;;;;;;2.13;1.50;;;17.60;49.40;;;;;;5068089;28;20045;-32
2023/04/02 02:58:25;;;;;;;2.10;1.40;;;18.90;77.10;;;;;;5052654;28;20490;-31
2023/04/02 03:00:52;;;;;;;2.15;1.50;;;;;;;;;;5052583;28;20081;-34
2023/04/02 03:03:21;;;;;;;2.45;1.50;;;17.30;49.30;;;;;;5052368;28;20044;-31
2023/04/02 03:05:50;;;;;;;2.53;1.40;;;18.70;72.90;;;;;;5052615;28;20056;-31
2023/04/02 03:08:20;;;;;;;1.95;1.23;;;18.30;77.10;;;;;;5053360;28;20409;-31
2023/04/02 03:10:48;;;;;;;2.65;1.42;;;17.90;76.60;;;;;;5071740;28;20044;-31
2023/04/02 03:13:18;;;;;;;1.70;1.20;;;16.50;75.90;;;;;;5072233;28;20058;-30
2023/04/02 03:15:49;;;;;;;2.53;1.40;;;17.90;76.60;;;;;;5072551;28;20059;-31
2023/04/02 03:18:18;;;;;;;2.45;1.33;;;17.60;49.50;;;;;;5072524;28;20409;-35
2023/04/02 03:20:47;;;;;;;2.20;1.38;;;16.80;49.10;;;;;;5072126;28;20557;-34
2023/04/02 03:23:17;;;;;;;2.30;1.42;;;17.60;76.90;;;;;;5072118;28;20044;-31
2023/04/02 03:25:46;;;;;;;2.13;1.33;;;17.50;49.50;;;;;;5057264;28;20048;-36
2023/04/02 03:28:14;;;;;;;1.85;1.20;;;18.60;72.90;;;;;;5052372;28;20049;-32
2023/04/02 03:30:43;;;;;;;1.77;1.23;;;17.50;51.80;;;;;;5052209;28;20053;-34
2023/04/02 03:33:12;;;;;;;2.03;1.40;;;17.50;76.70;;;;;;5051867;28;20053;-31
2023/04/02 03:35:41;;;;;;;2.08;1.30;;;18.20;67.20;;;;;;5065287;28;20054;-34
2023/04/02 03:38:12;;;;;;;2.35;1.30;;;16.80;76.40;;;;;;5071030;28;20070;-31
2023/04/02 03:40:42;;;;;;;2.67;1.08;;;17.30;71.50;;;;;;5071512;28;20135;-31
2023/04/02 03:43:15;;;;;;;2.22;1.30;;;17.50;49.50;;;;;;5071938;28;20427;-31
2023/04/02 03:45:43;;;;;;;1.80;1.30;;;16.20;73.20;;;;;;5072126;28;20052;-31
2023/04/02 03:48:12;;;;;;;2.38;1.27;;;17.40;76.40;;;;;;5071750;28;20070;-31
2023/04/02 03:50:41;;;;;;;2.05;1.40;;;17.50;49.50;;;;;;5071840;28;20056;-31
2023/04/02 03:53:07;;;;;;;2.22;1.30;;;17.70;54.00;;;;;;5066754;28;20043;-33
2023/04/02 03:55:36;;;;;;;2.10;1.27;;;17.30;76.20;;;;;;5051736;28;20049;-32
2023/04/02 03:58:06;;;;;;;2.85;1.45;;;17.40;76.20;;;;;;5051832;28;20513;-31
2023/04/02 04:00:35;;;;;;;1.65;1.20;;;17.40;76.60;;;;;;5051804;28;20078;-31
2023/04/02 04:03:07;;;;;;;2.58;1.20;;;17.60;49.40;;;;;;5051483;28;20049;-33
2023/04/02 04:05:35;;;;;;;2.17;1.20;;;17.60;49.40;;;;;;5051947;28;20049;-31
2023/04/02 04:08:03;;;;;;;2.10;1.30;;;17.60;49.30;;;;;;5057449;28;20055;-36
2023/04/02 04:10:30;;;;;;;4.13;1.40;;;17.30;74.90;;;;;;5071703;28;20128;-31
2023/04/02 04:13:02;;;;;;;1.80;1.20;;;17.30;76.10;;;;;;5071493;28;20055;-31
2023/04/02 04:15:31;;;;;;;2.03;1.10;;;17.60;76.20;;;;;;5071766;28;20055;-31
2023/04/02 04:18:00;;;;;;;1.70;1.20;;;17.70;49.20;;;;;;5071306;28;20386;-36
2023/04/02 04:20:29;;;;;;;2.15;1.20;;;17.70;49.20;;;;;;5071801;28;20056;-31
2023/04/02 04:22:56;;;;;;;1.35;1.00;;;;;;;;;;5070724;28;20050;-36
2023/04/02 04:25:28;;;;;;;2.22;1.38;;;17.70;49.00;;;;;;5071780;28;20102;-31
2023/04/02 04:28:04;;;;;;;2.15;1.23;;;18.20;74.40;;;;;;5071229;28;20044;-31
2023/04/02 04:30:35;;;;;;;1.67;1.20;;;18.00;58.10;;;;;;5071615;28;20048;-32
2023/04/02 04:33:04;;;;;;;1.00;0.90;;;17.70;75.90;;;;;;5071335;28;20409;-31
2023/04/02 04:35:32;;;;;;;2.00;1.10;;;18.20;51.90;;;;;;5071655;28;20060;-33
2023/04/02 04:38:02;;;;;;;2.08;1.10;;;17.90;48.80;;;;;;5070331;28;20044;-35
2023/04/02 04:40:30;;;;;;;2.28;1.02;;;18.10;65.00;;;;;;5071171;28;20067;-31
2023/04/02 04:42:59;;;;;;;2.63;1.10;;;18.00;48.80;;;;;;5071508;28;20119;-31
2023/04/02 04:45:35;;;;;;;1.63;1.10;;;18.40;76.30;;;;;;5071360;28;20409;-31
2023/04/02 04:48:03;;;;;;;1.52;1.05;;;17.80;75.80;;;;;;5071510;28;20048;-31
2023/04/02 04:50:31;;;;;;;2.13;1.05;;;18.30;75.70;;;;;;5068755;28;20505;-32
2023/04/02 04:52:58;;;;;;;1.80;1.20;;;17.90;75.30;;;;;;5054749;28;20055;-31
2023/04/02 04:55:29;;;;;;;2.03;1.00;;;17.90;75.30;;;;;;5054840;28;20144;-31
2023/04/02 04:57:58;;;;;;;1.70;1.00;;;18.70;76.00;;;;;;5055047;28;20513;-32
2023/04/02 05:00:27;;;;;;;1.95;1.13;;;17.90;75.20;;;;;;5054994;28;20413;-31
2023/04/02 05:03:00;;;;;;;1.40;1.08;;;17.70;75.40;;;;;;5054689;28;20128;-31
2023/04/02 05:05:29;;;;;;;1.20;1.10;;;17.70;57.80;;;;;;5062175;28;20055;-31
2023/04/02 05:07:58;;;;;;;1.73;1.00;;;18.40;48.30;;;;;;5074735;28;20131;-34
2023/04/02 05:10:27;;;;;;;1.52;0.95;;;18.40;75.50;;;;;;5074919;28;20056;-31
2023/04/02 05:12:55;;;;;;;1.70;1.13;;;18.20;63.80;;;;;;5074310;28;20127;-32
2023/04/02 05:15:24;;;;;;;1.60;1.00;;;18.40;48.10;;;;;;5074828;28;20056;-35
2023/04/02 05:17:52;;;;;;;2.05;1.00;;;19.00;49.10;;;;;;5074595;28;20416;-32
2023/04/02 05:20:23;;;;;;;1.55;1.00;;;18.90;75.60;;;;;;5074127;28;20062;-30
2023/04/02 05:22:50;;;;;;;2.10;0.98;;;17.80;75.00;;;;;;5074101;28;20527;-31
2023/04/02 05:25:20;;;;;;;2.40;1.33;;;18.40;75.20;;;;;;5074642;28;20044;-31
2023/04/02 05:27:48;;;;;;;1.25;1.00;;;19.90;73.30;;;;;;5074435;28;20131;-33
2023/04/02 05:30:31;;;;;;;1.58;1.00;;;18.50;47.80;;;;;;5074196;28;20052;-31
2023/04/02 05:32:59;;;;;;;1.65;0.95;;;;;;;;;;5074400;28;20074;-35
2023/04/02 05:35:28;;;;;;;1.77;1.13;;;18.20;70.70;;;;;;5073544;28;20048;-31
2023/04/02 05:37:55;;;;;;;1.95;1.20;;;18.30;74.30;;;;;;5073897;28;20058;-31
2023/04/02 05:40:23;;;;;;;1.88;1.00;;;17.90;74.50;;;;;;5074116;28;20048;-31
2023/04/02 05:42:51;;;;;;;1.58;1.05;;;;;;;;;;5074096;28;20052;-31
2023/04/02 05:45:25;;;;;;;1.65;0.90;;;18.40;69.00;;;;;;5074028;28;20079;-31
2023/04/02 05:47:53;;;;;;;1.67;0.80;;;18.80;74.40;;;;;;5073354;28;20048;-31
2023/04/02 05:50:24;;;;;;;1.80;0.90;;;19.60;75.20;;;;;;5069715;28;20456;-31
2023/04/02 05:52:53;;;;;;;1.63;0.95;;;18.90;50.00;;;;;;5073932;28;20048;-31
2023/04/02 05:55:34;;;;;;;1.27;0.80;;;18.70;74.30;;;;;;5073835;28;20055;-31
2023/04/02 05:58:02;;;;;;;2.28;1.00;;;18.50;54.00;;;;;;5074003;28;20059;-31
2023/04/02 06:00:44;;;;;;;1.65;0.98;;;19.10;74.50;;;;;;5073902;28;20049;-34
2023/04/02 06:03:13;;;;;;;1.30;0.90;;;18.70;47.50;;;;;;5073554;28;20684;-35
2023/04/02 06:05:42;;;;;;;1.50;0.98;;;17.90;74.20;;;;;;5053575;28;20056;-31
2023/04/02 06:08:11;;;;;;;1.15;0.98;;;19.00;74.50;;;;;;5053614;28;20051;-31
2023/04/02 06:10:42;;;;;;;0.98;0.82;;;19.40;70.00;;;;;;5053886;28;20056;-31
2023/04/02 06:13:10;;;;;;;1.10;0.90;;;18.50;74.40;;;;;;5053366;28;20643;-31
2023/04/02 06:15:37;;;;;;;1.30;0.90;;;19.30;74.90;;;;;;5053715;28;20045;-31
2023/04/02 06:18:06;;;;;;;1.90;1.15;;;18.80;47.40;;;;;;5053103;28;20053;-31
2023/04/02 06:20:33;;;;;;;1.25;1.00;;;18.40;73.90;;;;;;5053331;28;20498;-31
2023/04/02 06:23:01;;;;;;;2.58;1.13;;;18.70;47.30;;;;;;5062182;28;20052;-36
2023/04/02 06:25:31;;;;;;;1.38;0.88;;;18.70;47.30;;;;;;5073524;28;20047;-34
2023/04/02 06:27:58;;;;;;;1.58;1.00;;;19.10;74.30;;;;;;5073682;28;20098;-31
2023/04/02 06:30:27;;;;;;;3.15;1.08;;;18.30;54.40;;;;;;5073206;28;20048;-32
2023/04/02 06:32:53;;;;;;;2.05;1.13;;;18.30;74.30;;;;;;5072197;28;20048;-31
2023/04/02 06:35:20;;;;;;;1.67;1.00;;;;;;;;;;5073028;28;20048;-35
2023/04/02 06:37:48;;;;;;;1.70;1.00;;;19.10;74.10;;;;;;5073011;28;20135;-31
2023/04/02 06:40:27;;;;;;;1.73;0.90;;;18.70;73.20;;;;;;5073038;28;20076;-31
2023/04/02 06:42:58;;;;;;;3.45;1.10;;;17.90;73.50;;;;;;5072738;28;20048;-31
2023/04/02 06:45:28;;;;;;;1.55;0.90;;;19.20;62.00;;;;;;5072894;28;20386;-31
2023/04/02 06:47:55;;;;;;;2.30;1.05;;;18.80;47.20;;;;;;5072079;28;20121;-35
2023/04/02 06:50:23;;;;;;;2.10;0.90;;;18.30;73.70;;;;;;5072671;28;20076;-31
2023/04/02 06:52:51;;;;;;;1.70;0.93;;;19.10;74.60;;;;;;5072420;28;20053;-31
2023/04/02 06:55:26;;;;;;;3.22;0.90;;;17.50;47.60;;;;;;5072389;28;20048;-31
2023/04/02 06:57:53;;;;;;;1.60;1.13;;;18.40;58.10;;;;;;5066464;28;20053;-32
2023/04/02 07:00:26;;;;;;;1.48;0.90;;;19.50;74.30;;;;;;5072619;28;20557;-31
2023/04/02 07:02:53;;;;;;;1.48;0.90;;;;;;;;;;5069096;28;20057;-31
2023/04/02 07:05:20;;;;;;;1.58;0.98;;;19.60;74.70;;;;;;5052704;28;20132;-31
2023/04/02 07:07:47;;;;;;;2.42;1.23;;;20.00;74.50;;;;;;5052496;28;20122;-30
2023/04/02 07:10:14;;;;;;;1.40;0.90;;;18.80;57.30;;;;;;5069474;28;20048;-32
2023/04/02 07:12:41;;;;;;;1.83;0.93;;;;;;;;;;5071376;28;20083;-31
2023/04/02 07:15:10;;;;;;;1.60;0.93;;;19.00;59.30;;;;;;5072659;28;20041;-32
2023/04/02 07:17:38;;;;;;;2.33;1.00;;;18.90;47.00;;;;;;5062911;28;20083;-35
2023/04/02 07:20:06;;;;;;;1.08;0.77;;;18.90;46.90;;;;;;5068241;28;20072;-33
2023/04/02 07:22:33;;;;;;;1.75;0.90;;;18.10;73.10;;;;;;5072195;28;20044;-32
2023/04/02 07:25:00;;;;;;;2.00;0.90;;;;;;;;;;5071882;28;20041;-36
2023/04/02 07:27:27;;;;;;;2.78;0.95;;;18.90;73.80;;;;;;5072236;28;20052;-30
2023/04/02 07:29:53;;;;;;;1.80;1.10;;;18.90;73.30;;;;;;5072211;28;20048;-31
2023/04/02 07:32:20;;;;;;;2.80;0.80;;;;;;;;;;5071408;28;20139;-33
2023/04/02 07:34:48;;;;;;;1.13;0.80;;;19.00;73.60;;;;;;5072163;28;20127;-30
2023/04/02 07:37:15;;;;;;;1.30;0.90;;;18.90;64.80;;;;;;5071670;28;20045;-31
2023/04/02 07:39:42;;;;;;;1.60;0.88;;;;;;;;;;5066140;28;20520;-35
2023/04/02 07:42:09;;;;;;;1.88;0.90;;;19.10;72.60;;;;;;5062663;28;20562;-31
2023/04/02 07:44:37;;;;;;;1.33;0.82;;;;;;;;;;5061361;28;20040;-35
2023/04/02 07:47:04;;;;;;;1.35;0.90;;;19.90;73.60;;;;;;5060026;28;20059;-31
2023/04/02 07:49:31;;;;;;;2.65;0.90;;;19.50;59.60;;;;;;5060649;28;20553;-31
2023/04/02 07:51:59;;;;;;;1.58;1.10;;;19.30;72.90;;;;;;5063086;28;20053;-31
2023/04/02 07:54:27;;;;;;;1.10;0.80;;;19.40;55.70;;;;;;5056680;28;20055;-31
2023/04/02 07:56:53;;;;;;;2.53;1.15;;;19.50;72.40;;;;;;5060388;28;20394;-31
2023/04/02 07:59:20;;;;;;;1.50;1.00;;;19.80;72.60;;;;;;5061588;28;20052;-31
2023/04/02 08:01:47;;;;;;;1.85;1.00;;;;;;;;;;5058843;28;20055;-36
2023/04/02 08:04:17;;;;;;;2.10;0.90;;;20.10;70.10;;;;;;5057527;28;20059;-31
2023/04/02 08:06:43;;;;;;;1.65;1.00;;;19.90;64.80;;;;;;5060939;28;20045;-32
2023/04/02 08:09:11;;;;;;;1.92;0.80;;;19.80;72.60;;;;;;5063271;28;20120;-31
2023/04/02 08:11:39;;;;;;;1.30;0.80;;;20.30;63.10;;;;;;5060150;28;20051;-31
2023/04/02 08:14:06;;;;;;;1.30;0.90;;;;;;;;;;5059833;28;20468;-32
2023/04/02 08:16:44;;;;;;;2.25;1.00;;;21.20;72.70;;;;;;5062275;28;20052;-31
2023/04/02 08:19:11;;;;;;;1.75;0.93;;;;;;;;;;5050675;28;20442;-36
2023/04/02 08:21:38;;;;;;;1.08;0.82;;;19.80;72.10;;;;;;5051334;28;20508;-31
2023/04/02 08:24:05;;;;;;;1.70;0.98;;;20.60;72.60;;;;;;5057684;28;20071;-31
2023/04/02 08:26:33;;;;;;;2.80;0.90;;;21.10;65.40;;;;;;5064489;28;20055;-32
2023/04/02 08:29:00;;;;;;;1.13;0.80;;;;;;;;;;5064395;28;20051;-31
2023/04/02 08:31:27;;;;;;;1.38;0.80;;;20.90;72.10;;;;;;5064991;28;20059;-30
2023/04/02 08:33:55;;;;;;;1.02;0.70;;;;;;;;;;5064780;28;20060;-36
2023/04/02 08:36:25;;;;;;;2.13;0.90;;;19.50;45.00;;;;;;5062839;28;20544;-33
2023/04/02 08:38:52;;;;;;;1.63;1.00;;;;;;;;;;5065677;28;20052;-33
2023/04/02 08:41:22;;;;;;;0.80;0.70;;;20.70;62.40;;;;;;5063316;28;20055;-32
2023/04/02 08:44:09;;;;;;;1.42;0.75;;;21.90;60.00;;;;;;5064961;28;20426;-32
2023/04/02 08:46:38;;;;;;;1.45;0.80;;;21.10;72.20;;;;;;5065184;28;20076;-31
2023/04/02 08:49:09;;;;;;;1.67;0.90;;;;;;;;;;5063839;28;20128;-31
2023/04/02 08:51:36;;;;;;;1.08;0.77;;;20.00;71.50;;;;;;5063528;28;20516;-31
2023/04/02 08:54:07;;;;;;;1.67;0.90;;;21.00;46.20;;;;;;5068367;28;20150;-33
2023/04/02 08:56:37;;;;;;;1.75;0.90;;;21.30;71.80;;;;;;5066337;28;20048;-31
2023/04/02 08:59:09;;;;;;;1.20;0.90;;;20.90;71.20;;;;;;5063470;28;20049;-31
2023/04/02 09:01:40;;;;;;;1.73;0.80;;;21.00;71.20;;;;;;5064494;28;20052;-31
2023/04/02 09:04:12;;;;;;;1.17;0.77;;;21.00;45.00;;;;;;5060107;28;20505;-35
2023/04/02 09:06:39;;;;;;;1.05;0.70;;;;;;;;;;5054881;28;20395;-33
2023/04/02 09:09:07;;;;;;;1.35;0.70;;;;;;;;;;5057798;28;20507;-37
2023/04/02 09:11:35;;;;;;;1.23;0.75;;;20.10;70.30;;;;;;5071856;28;20778;-30
2023/04/02 09:14:05;;;;;;;1.55;0.90;;;20.70;70.80;;;;;;5074789;28;20089;-31
2023/04/02 09:16:40;;;;;;;0.70;0.70;;;22.30;45.20;;;;;;5059127;28;20395;-31
2023/04/02 09:19:17;;;;;;;1.48;0.90;;;21.30;44.60;;;;;;5054368;28;20123;-31
2023/04/02 09:21:45;;;;;;;1.98;0.95;;;21.70;58.80;;;;;;5053359;28;20417;-31
2023/04/02 09:24:12;;;;;;;0.85;0.75;;;21.30;70.70;;;;;;5054346;28;20060;-31
2023/04/02 09:26:39;;;;;;;2.30;0.93;;;;;;;;;;5053869;28;20497;-31
2023/04/02 09:29:37;;;;;;;1.48;0.80;;;21.60;44.40;;;;;;5053509;28;20463;-31
2023/04/02 09:32:10;;;;;;;0.70;0.70;;;23.20;56.10;;;;;;5065963;28;20048;-34
2023/04/02 09:34:36;;;;;;;1.35;0.70;;;21.20;70.30;;;;;;5062744;28;20120;-31
2023/04/02 09:37:07;;;;;;;1.83;0.73;;;22.80;70.80;;;;;;5072519;28;20048;-31
2023/04/02 09:39:34;;;;;;;0.98;0.80;;;;;;;;;;5068472;28;20076;-31
2023/04/02 09:42:06;;;;;;;1.02;0.80;;;21.80;44.10;;;;;;5054087;28;20056;-39
2023/04/02 09:44:34;;;;;;;1.63;0.70;;;23.10;66.60;;;;;;5053859;28;20056;-32
2023/04/02 09:47:03;;;;;;;1.38;0.80;;;21.90;43.90;;;;;;5060358;28;20057;-33
2023/04/02 09:49:30;;;;;;;2.33;0.90;;;22.10;69.90;;;;;;5063770;28;20127;-31
2023/04/02 09:52:11;;;;;;;1.35;0.70;;;21.70;51.40;;;;;;5061981;28;20139;-35
2023/04/02 09:54:40;;;;;;;1.25;0.75;;;;;;;;;;5029057;28;20079;-36
2023/04/02 09:57:22;;;;;;;0.85;0.75;;;22.00;69.60;;;;;;5060027;28;20045;-31
2023/04/02 10:00:17;;;;;;;1.38;0.80;;;21.30;69.20;;;;;;5060511;28;20045;-31
2023/04/02 10:02:45;;;;;;;1.38;0.80;;;;;;;;;;5061929;28;20526;-31
2023/04/02 10:05:18;;;;;;;1.45;0.63;;;22.00;69.30;;;;;;5063179;28;20529;-31
2023/04/02 10:07:47;;;;;;;1.00;0.90;;;22.20;43.40;;;;;;5061515;28;20055;-36
2023/04/02 10:10:20;;;;;;;4.47;1.00;;;21.90;69.30;;;;;;5060932;28;20052;-31
2023/04/02 10:12:49;;;;;;;2.28;0.88;;;22.30;43.40;;;;;;5061297;28;20421;-35
2023/04/02 10:15:21;;;;;;;2.00;0.80;;;23.30;70.00;;;;;;5062423;28;20040;-31
2023/04/02 10:17:48;;;;;;;1.17;0.70;;;23.00;69.40;;;;;;5062999;28;20128;-31
2023/04/02 10:20:18;;;;;;;1.27;0.90;;;22.30;43.20;;;;;;5060367;28;20556;-34
2023/04/02 10:22:45;;;;;;;2.88;1.30;;;;;;;;;;5059820;28;20481;-33
2023/04/02 10:25:14;;;;;;;1.17;0.80;;;22.20;69.20;;;;;;5056037;28;20049;-31
2023/04/02 10:27:44;;;;;;;0.75;0.70;;;22.00;69.00;;;;;;5062607;28;20048;-31
2023/04/02 10:30:18;;;;;;;1.40;0.90;;;23.30;69.30;;;;;;5052525;28;20052;-31
2023/04/02 10:32:48;;;;;;;1.20;0.70;;;22.40;69.00;;;;;;5052310;28;20128;-31
2023/04/02 10:35:19;;;;;;;0.77;0.77;;;22.30;42.80;;;;;;5057174;28;20041;-31
2023/04/02 10:38:12;;;;;;;0.85;0.80;;;22.10;68.90;;;;;;5056100;28;20498;-31
2023/04/02 10:40:40;;;;;;;0.98;0.77;;;22.20;68.70;;;;;;5052741;28;20053;-31
2023/04/02 10:43:38;;;;;;;1.30;0.80;;;21.30;68.10;;;;;;5052497;28;20147;-31
2023/04/02 10:46:08;;;;;;;1.40;0.80;;;22.50;68.80;;;;;;5051734;28;20059;-31
2023/04/02 10:48:38;;;;;;;1.58;0.90;;;22.00;68.90;;;;;;5052792;28;20099;-31
2023/04/02 10:51:06;;;;;;;2.05;0.98;;;22.30;69.10;;;;;;5052670;28;20498;-31
2023/04/02 10:53:37;;;;;;;1.35;0.70;;;21.30;68.20;;;;;;5052185;28;20048;-31
2023/04/02 10:56:07;;;;;;;1.60;0.98;;;22.50;69.70;;;;;;5052865;28;20048;-31
2023/04/02 10:58:37;;;;;;;1.13;0.75;;;22.10;42.80;;;;;;5052738;28;20518;-36
2023/04/02 11:01:10;;;;;;;1.88;0.80;;;22.00;59.30;;;;;;5051826;28;20055;-31
2023/04/02 11:03:38;;;;;;;1.23;0.70;;;22.10;42.80;;;;;;5052268;28;20052;-35
2023/04/02 11:06:09;;;;;;;1.00;0.65;;;22.30;68.90;;;;;;5051923;28;20045;-31
2023/04/02 11:08:40;;;;;;;1.30;0.70;;;21.80;68.50;;;;;;5066537;28;20054;-30
2023/04/02 11:11:09;;;;;;;2.22;0.70;;;22.00;69.10;;;;;;5067658;28;20139;-30
2023/04/02 11:13:37;;;;;;;1.20;0.80;;;23.50;69.40;;;;;;5060456;28;20393;-31
2023/04/02 11:16:04;;;;;;;1.45;0.80;;;21.90;69.00;;;;;;5051576;28;20040;-31
2023/04/02 11:18:34;;;;;;;2.70;0.90;;;22.70;69.00;;;;;;5051586;28;20053;-31
2023/04/02 11:21:03;;;;;;;1.52;0.70;;;21.90;43.20;;;;;;5058095;28;20048;-34
2023/04/02 11:23:31;;;;;;;1.23;0.70;;;21.90;68.60;;;;;;5061235;28;20366;-31
2023/04/02 11:26:41;;;;;;;1.65;0.85;;;21.90;68.70;;;;;;5060005;28;20052;-31
2023/04/02 11:29:16;;;;;;;0.82;0.70;;;21.90;43.00;;;;;;5046553;28;20105;-32
2023/04/02 11:31:43;;;;;;;1.30;0.80;;;22.10;43.20;;;;;;5063410;28;20127;-34
2023/04/02 11:34:16;;;;;;;1.63;0.80;;;21.30;68.80;;;;;;5072244;28;20048;-30
2023/04/02 11:37:00;;;;;;;1.23;0.90;;;21.90;68.10;;;;;;5071519;28;20054;-31
2023/04/02 11:39:48;;;;;;;1.92;0.85;;;20.80;68.40;;;;;;5072017;28;20139;-31
2023/04/02 11:42:31;;;;;;;1.10;0.80;;;21.50;69.10;;;;;;5071887;28;20106;-31
2023/04/02 11:45:17;;;;;;;0.98;0.70;;;21.30;61.90;;;;;;5062959;28;20056;-33
2023/04/02 11:47:46;;;;;;;0.77;0.77;;;20.50;62.30;;;;;;5051213;28;20049;-31
2023/04/02 11:50:29;;;;;;;1.33;0.65;;;21.10;43.70;;;;;;5051191;28;20083;-31
2023/04/02 11:52:56;;;;;;;1.75;0.75;;;;;;;;;;5051693;28;20084;-35
2023/04/02 11:55:30;;;;;;;0.70;0.70;;;20.10;43.20;;;;;;5051991;28;20074;-31
2023/04/02 11:58:08;;;;;;;0.95;0.70;;;21.40;43.50;;;;;;5051512;28;20052;-32
2023/04/02 12:01:10;;;;;;;1.33;0.80;;;21.80;70.10;;;;;;5051936;28;20049;-31
2023/04/02 12:03:46;;;;;;;1.33;0.90;;;20.00;69.00;;;;;;5053908;28;20051;-32
2023/04/02 12:06:19;;;;;;;2.45;0.90;;;20.70;44.10;;;;;;5071102;28;20440;-34
2023/04/02 12:08:50;;;;;;;1.15;0.80;;;21.20;69.80;;;;;;5056548;28;20147;-31
2023/04/02 12:11:17;;;;;;;1.45;0.90;;;21.00;69.70;;;;;;5053578;28;20045;-32
2023/04/02 12:13:51;;;;;;;2.58;0.80;;;20.70;59.10;;;;;;5051482;28;20543;-31
2023/04/02 12:16:18;;;;;;;1.23;0.80;;;;;;;;;;5060987;28;20123;-30
2023/04/02 12:18:45;;;;;;;1.48;1.10;;;21.20;43.80;;;;;;5065179;28;20133;-35
2023/04/02 12:21:16;;;;;;;2.30;0.82;;;19.80;69.10;;;;;;5063966;28;20053;-33
2023/04/02 12:23:44;;;;;;;0.75;0.70;;;21.10;43.80;;;;;;5051387;28;20045;-36
2023/04/02 12:26:26;;;;;;;1.33;0.70;;;20.90;54.90;;;;;;5059649;28;20045;-32
2023/04/02 12:28:53;;;;;;;0.93;0.60;;;20.40;69.60;;;;;;5071906;28;20049;-31
2023/04/02 12:31:19;;;;;;;1.25;0.70;;;21.20;56.60;;;;;;5071326;28;20573;-33
2023/04/02 12:33:46;;;;;;;0.98;0.70;;;19.80;69.30;;;;;;5071291;28;20174;-31
2023/04/02 12:36:21;;;;;;;1.30;0.70;;;21.00;70.10;;;;;;5071090;28;20051;-31
2023/04/02 12:38:49;;;;;;;1.60;0.70;;;21.60;70.50;;;;;;5058466;28;20127;-32
2023/04/02 12:41:22;;;;;;;0.98;0.85;;;21.00;67.60;;;;;;5051157;28;20059;-31
2023/04/02 12:43:59;;;;;;;0.63;0.50;;;21.60;70.50;;;;;;5051482;28;20597;-32
2023/04/02 12:46:26;;;;;;;1.70;0.85;;;;;;;;;;5051507;28;20052;-35
2023/04/02 12:48:53;;;;;;;1.30;0.80;;;21.60;70.80;;;;;;5051520;28;20083;-31
2023/04/02 12:51:21;;;;;;;1.13;0.70;;;21.10;44.00;;;;;;5051185;28;20045;-35
2023/04/02 12:53:50;;;;;;;1.20;0.70;;;21.10;44.00;;;;;;5051196;28;20072;-35
2023/04/02 12:56:20;;;;;;;1.00;0.80;;;20.70;65.60;;;;;;5051463;28;20051;-31
2023/04/02 12:58:52;;;;;;;1.25;0.80;;;20.30;69.70;;;;;;5051575;28;20053;-31
2023/04/02 13:01:19;;;;;;;1.67;0.82;;;21.00;43.90;;;;;;5066756;28;20059;-32
2023/04/02 13:04:02;;;;;;;1.25;0.80;;;21.00;43.90;;;;;;5071200;28;20049;-31
2023/04/02 13:06:30;;;;;;;0.82;0.68;;;21.30;51.50;;;;;;5071220;28;20049;-31
2023/04/02 13:08:57;;;;;;;1.50;0.80;;;21.10;70.40;;;;;;5071101;28;20497;-31
2023/04/02 13:11:33;;;;;;;0.93;0.70;;;20.30;70.00;;;;;;5074420;28;20041;-31
2023/04/02 13:14:01;;;;;;;0.57;0.50;;;;;;;;;;5074694;28;20139;-35
2023/04/02 13:16:29;;;;;;;2.47;0.73;;;20.50;69.90;;;;;;5074925;28;20405;-31
2023/04/02 13:19:10;;;;;;;0.85;0.68;;;21.10;70.60;;;;;;5074613;28;20056;-39
2023/04/02 13:21:38;;;;;;;1.02;0.70;;;20.70;51.50;;;;;;5064296;28;20381;-39
2023/04/02 13:24:05;;;;;;;1.02;0.55;;;20.80;49.00;;;;;;5054938;28;20057;-36